sensor_id;sensor_type;location;lat;lon;timestamp;pressure;altitude;pressure_sealevel;temperature;humidity
7309;BME280;3695;53.330;9.876;2023-07-09T00:00:02;102560.06;;;31.47;96.79
7309;BME280;3695;53.330;9.876;2023-07-09T00:02:30;102562.13;;;31.77;97.51
7309;BME280;3695;53.330;9.876;2023-07-09T00:04:57;102544.34;;;32.35;97.00
7309;BME280;3695;53.330;9.876;2023-07-09T00:07:28;102544.69;;;32.42;95.18
7309;BME280;3695;53.330;9.876;2023-07-09T00:09:55;102530.84;;;33.63;95.84
7309;BME280;3695;53.330;9.876;2023-07-09T00:12:22;102548.16;;;31.86;96.32
7309;BME280;3695;53.330;9.876;2023-07-09T00:14:49;102534.78;;;33.02;94.23
7309;BME280;3695;53.330;9.876;2023-07-09T00:17:23;102557.50;;;32.04;94.68
7309;BME280;3695;53.330;9.876;2023-07-09T00:19:52;102544.13;;;32.01;96.66
7309;BME280;3695;53.330;9.876;2023-07-09T00:22:20;102552.03;;;31.54;95.76
7309;BME280;3695;53.330;9.876;2023-07-09T00:24:49;102551.94;;;31.81;96.22
7309;BME280;3695;53.330;9.876;2023-07-09T00:27:17;102561.31;;;30.63;98.15
7309;BME280;3695;53.330;9.876;2023-07-09T00:29:44;102545.06;;;31.29;97.29
7309;BME280;3695;53.330;9.876;2023-07-09T00:32:12;102547.44;;;31.72;97.27
7309;BME280;3695;53.330;9.876;2023-07-09T00:34:40;102540.44;;;31.91;97.26
7309;BME280;3695;53.330;9.876;2023-07-09T00:37:10;102542.47;;;32.00;96.09
7309;BME280;3695;53.330;9.876;2023-07-09T00:39:38;102552.50;;;30.70;98.51
7309;BME280;3695;53.330;9.876;2023-07-09T00:42:07;102555.72;;;30.91;98.82
7309;BME280;3695;53.330;9.876;2023-07-09T00:44:37;102545.13;;;31.74;96.36
7309;BME280;3695;53.330;9.876;2023-07-09T00:47:28;102563.75;;;31.06;98.13
7309;BME280;3695;53.330;9.876;2023-07-09T00:50:05;102559.03;;;30.93;98.32
7309;BME280;3695;53.330;9.876;2023-07-09T00:52:38;102545.94;;;31.02;98.65
7309;BME280;3695;53.330;9.876;2023-07-09T00:55:18;102556.25;;;30.65;99.13
7309;BME280;3695;53.330;9.876;2023-07-09T00:57:47;102558.13;;;30.84;98.49
7309;BME280;3695;53.330;9.876;2023-07-09T01:00:23;102556.69;;;31.36;96.71
7309;BME280;3695;53.330;9.876;2023-07-09T01:02:53;102552.78;;;30.96;97.99
7309;BME280;3695;53.330;9.876;2023-07-09T01:05:20;102565.09;;;30.26;99.67
7309;BME280;3695;53.330;9.876;2023-07-09T01:07:47;102557.38;;;30.92;98.75
7309;BME280;3695;53.330;9.876;2023-07-09T01:10:17;102557.34;;;30.51;99.34
7309;BME280;3695;53.330;9.876;2023-07-09T01:12:44;102549.91;;;31.37;98.03
7309;BME280;3695;53.330;9.876;2023-07-09T01:15:13;102556.56;;;30.78;99.09
7309;BME280;3695;53.330;9.876;2023-07-09T01:17:40;102552.31;;;30.66;100.00
7309;BME280;3695;53.330;9.876;2023-07-09T01:20:15;102551.16;;;30.67;99.50
7309;BME280;3695;53.330;9.876;2023-07-09T01:22:47;102559.44;;;29.99;99.76
7309;BME280;3695;53.330;9.876;2023-07-09T01:25:15;102546.84;;;30.15;99.95
7309;BME280;3695;53.330;9.876;2023-07-09T01:27:44;102538.31;;;30.66;99.64
7309;BME280;3695;53.330;9.876;2023-07-09T01:30:16;102546.81;;;30.61;100.00
7309;BME280;3695;53.330;9.876;2023-07-09T01:32:48;102551.09;;;30.13;100.00
7309;BME280;3695;53.330;9.876;2023-07-09T01:35:16;102539.22;;;30.89;100.00
7309;BME280;3695;53.330;9.876;2023-07-09T01:37:43;102554.81;;;30.08;100.00
7309;BME280;3695;53.330;9.876;2023-07-09T01:40:13;102571.44;;;29.67;100.00
7309;BME280;3695;53.330;9.876;2023-07-09T01:42:40;102575.91;;;28.64;100.00
7309;BME280;3695;53.330;9.876;2023-07-09T01:45:08;102562.28;;;29.24;100.00
7309;BME280;3695;53.330;9.876;2023-07-09T01:47:36;102561.41;;;28.38;100.00
7309;BME280;3695;53.330;9.876;2023-07-09T01:50:03;102546.31;;;29.48;100.00
7309;BME280;3695;53.330;9.876;2023-07-09T01:52:31;102553.19;;;29.56;100.00
7309;BME280;3695;53.330;9.876;2023-07-09T01:54:58;102551.72;;;29.02;100.00
7309;BME280;3695;53.330;9.876;2023-07-09T01:57:28;102547.72;;;29.08;100.00
7309;BME280;3695;53.330;9.876;2023-07-09T01:59:59;102552.00;;;28.76;100.00
7309;BME280;3695;53.330;9.876;2023-07-09T02:02:26;102550.56;;;28.60;100.00
7309;BME280;3695;53.330;9.876;2023-07-09T02:04:54;102538.94;;;29.71;100.00
7309;BME280;3695;53.330;9.876;2023-07-09T02:07:23;102561.25;;;28.53;100.00
7309;BME280;3695;53.330;9.876;2023-07-09T02:09:50;102568.53;;;27.91;100.00
7309;BME280;3695;53.330;9.876;2023-07-09T02:12:17;102570.44;;;27.62;100.00
7309;BME280;3695;53.330;9.876;2023-07-09T02:14:46;102556.72;;;28.04;100.00
7309;BME280;3695;53.330;9.876;2023-07-09T02:17:14;102547.50;;;28.33;100.00
7309;BME280;3695;53.330;9.876;2023-07-09T02:19:41;102550.09;;;27.95;100.00
7309;BME280;3695;53.330;9.876;2023-07-09T02:22:08;102551.78;;;27.96;100.00
7309;BME280;3695;53.330;9.876;2023-07-09T02:24:35;102533.69;;;29.13;100.00
7309;BME280;3695;53.330;9.876;2023-07-09T02:27:03;102550.53;;;28.07;100.00
7309;BME280;3695;53.330;9.876;2023-07-09T02:29:30;102550.72;;;27.87;100.00
7309;BME280;3695;53.330;9.876;2023-07-09T02:31:59;102552.78;;;28.05;100.00
7309;BME280;3695;53.330;9.876;2023-07-09T02:34:27;102548.06;;;27.72;100.00
7309;BME280;3695;53.330;9.876;2023-07-09T02:36:55;102554.94;;;28.13;100.00
7309;BME280;3695;53.330;9.876;2023-07-09T02:39:22;102538.94;;;28.53;100.00
7309;BME280;3695;53.330;9.876;2023-07-09T02:41:49;102554.34;;;28.16;100.00
7309;BME280;3695;53.330;9.876;2023-07-09T02:44:17;102559.69;;;28.13;100.00
7309;BME280;3695;53.330;9.876;2023-07-09T02:46:44;102548.28;;;28.62;100.00
7309;BME280;3695;53.330;9.876;2023-07-09T02:49:13;102560.03;;;28.06;100.00
7309;BME280;3695;53.330;9.876;2023-07-09T02:51:40;102532.28;;;30.32;100.00
7309;BME280;3695;53.330;9.876;2023-07-09T02:54:07;102532.75;;;31.16;100.00
7309;BME280;3695;53.330;9.876;2023-07-09T02:56:34;102548.63;;;29.22;100.00
7309;BME280;3695;53.330;9.876;2023-07-09T02:59:00;102548.56;;;28.37;100.00
7309;BME280;3695;53.330;9.876;2023-07-09T03:01:27;102558.78;;;27.88;100.00
7309;BME280;3695;53.330;9.876;2023-07-09T03:03:54;102547.28;;;28.29;100.00
7309;BME280;3695;53.330;9.876;2023-07-09T03:06:23;102543.94;;;28.75;100.00
7309;BME280;3695;53.330;9.876;2023-07-09T03:08:50;102559.66;;;27.84;100.00
7309;BME280;3695;53.330;9.876;2023-07-09T03:11:16;102557.22;;;27.77;100.00
7309;BME280;3695;53.330;9.876;2023-07-09T03:13:43;102569.47;;;26.73;100.00
7309;BME280;3695;53.330;9.876;2023-07-09T03:16:10;102542.53;;;28.30;100.00
7309;BME280;3695;53.330;9.876;2023-07-09T03:18:37;102543.84;;;28.37;100.00
7309;BME280;3695;53.330;9.876;2023-07-09T03:21:03;102541.31;;;28.41;100.00
7309;BME280;3695;53.330;9.876;2023-07-09T03:23:31;102555.59;;;28.05;100.00
7309;BME280;3695;53.330;9.876;2023-07-09T03:25:58;102557.53;;;28.05;100.00
7309;BME280;3695;53.330;9.876;2023-07-09T03:28:25;102563.31;;;27.45;100.00
7309;BME280;3695;53.330;9.876;2023-07-09T03:30:54;102567.28;;;27.29;100.00
7309;BME280;3695;53.330;9.876;2023-07-09T03:33:21;102569.69;;;26.86;100.00
7309;BME280;3695;53.330;9.876;2023-07-09T03:35:47;102581.50;;;26.58;100.00
7309;BME280;3695;53.330;9.876;2023-07-09T03:38:14;102579.59;;;29.63;100.00
7309;BME280;3695;53.330;9.876;2023-07-09T03:40:42;102576.88;;;27.08;100.00
7309;BME280;3695;53.330;9.876;2023-07-09T03:43:09;102575.78;;;26.93;100.00
7309;BME280;3695;53.330;9.876;2023-07-09T03:45:36;102585.31;;;26.77;100.00
7309;BME280;3695;53.330;9.876;2023-07-09T03:48:04;102573.28;;;26.92;100.00
7309;BME280;3695;53.330;9.876;2023-07-09T03:50:31;102569.47;;;27.76;100.00
7309;BME280;3695;53.330;9.876;2023-07-09T03:52:58;102576.16;;;27.36;100.00
7309;BME280;3695;53.330;9.876;2023-07-09T03:55:25;102571.28;;;27.13;100.00
7309;BME280;3695;53.330;9.876;2023-07-09T03:57:53;102576.69;;;27.38;100.00
7309;BME280;3695;53.330;9.876;2023-07-09T04:00:20;102570.97;;;27.64;100.00
7309;BME280;3695;53.330;9.876;2023-07-09T04:02:46;102573.31;;;27.46;100.00
7309;BME280;3695;53.330;9.876;2023-07-09T04:05:13;102580.22;;;27.10;100.00
7309;BME280;3695;53.330;9.876;2023-07-09T04:07:40;102576.94;;;26.87;100.00
7309;BME280;3695;53.330;9.876;2023-07-09T04:10:07;102581.81;;;27.21;100.00
7309;BME280;3695;53.330;9.876;2023-07-09T04:12:34;102579.25;;;27.29;100.00
7309;BME280;3695;53.330;9.876;2023-07-09T04:15:04;102583.69;;;26.66;100.00
7309;BME280;3695;53.330;9.876;2023-07-09T04:17:31;102579.56;;;26.58;100.00
7309;BME280;3695;53.330;9.876;2023-07-09T04:19:57;102580.91;;;26.66;100.00
7309;BME280;3695;53.330;9.876;2023-07-09T04:22:24;102569.78;;;26.71;100.00
7309;BME280;3695;53.330;9.876;2023-07-09T04:24:51;102552.16;;;27.45;100.00
7309;BME280;3695;53.330;9.876;2023-07-09T04:27:18;102558.31;;;28.10;100.00
7309;BME280;3695;53.330;9.876;2023-07-09T04:29:45;102554.81;;;27.66;100.00
7309;BME280;3695;53.330;9.876;2023-07-09T04:32:14;102560.50;;;28.13;100.00
7309;BME280;3695;53.330;9.876;2023-07-09T04:34:41;102566.94;;;28.14;100.00
7309;BME280;3695;53.330;9.876;2023-07-09T04:37:09;102572.34;;;28.00;100.00
7309;BME280;3695;53.330;9.876;2023-07-09T04:39:36;102559.91;;;28.69;100.00
7309;BME280;3695;53.330;9.876;2023-07-09T04:42:04;102551.91;;;28.63;100.00
7309;BME280;3695;53.330;9.876;2023-07-09T04:44:30;102564.84;;;28.30;100.00
7309;BME280;3695;53.330;9.876;2023-07-09T04:46:57;102568.75;;;28.29;100.00
7309;BME280;3695;53.330;9.876;2023-07-09T04:49:25;102570.38;;;28.59;100.00
7309;BME280;3695;53.330;9.876;2023-07-09T04:51:51;102556.59;;;28.67;100.00
7309;BME280;3695;53.330;9.876;2023-07-09T04:54:18;102547.94;;;28.93;100.00
7309;BME280;3695;53.330;9.876;2023-07-09T04:56:44;102551.78;;;28.97;100.00
7309;BME280;3695;53.330;9.876;2023-07-09T04:59:10;102561.72;;;29.45;100.00
7309;BME280;3695;53.330;9.876;2023-07-09T05:01:37;102581.28;;;28.31;100.00
7309;BME280;3695;53.330;9.876;2023-07-09T05:04:04;102558.44;;;29.01;100.00
7309;BME280;3695;53.330;9.876;2023-07-09T05:06:35;102560.03;;;28.83;100.00
7309;BME280;3695;53.330;9.876;2023-07-09T05:09:01;102556.41;;;28.82;100.00
7309;BME280;3695;53.330;9.876;2023-07-09T05:11:28;102572.59;;;28.33;100.00
7309;BME280;3695;53.330;9.876;2023-07-09T05:13:54;102570.22;;;29.17;100.00
7309;BME280;3695;53.330;9.876;2023-07-09T05:16:20;102552.53;;;29.45;100.00
7309;BME280;3695;53.330;9.876;2023-07-09T05:18:47;102550.91;;;29.58;100.00
7309;BME280;3695;53.330;9.876;2023-07-09T05:21:13;102544.97;;;29.45;100.00
7309;BME280;3695;53.330;9.876;2023-07-09T05:23:41;102543.50;;;29.67;100.00
7309;BME280;3695;53.330;9.876;2023-07-09T05:26:09;102543.91;;;29.74;100.00
7309;BME280;3695;53.330;9.876;2023-07-09T05:28:35;102541.56;;;30.14;100.00
7309;BME280;3695;53.330;9.876;2023-07-09T05:31:02;102537.13;;;30.26;100.00
7309;BME280;3695;53.330;9.876;2023-07-09T05:33:28;102538.50;;;30.56;100.00
7309;BME280;3695;53.330;9.876;2023-07-09T05:35:54;102549.78;;;29.91;100.00
7309;BME280;3695;53.330;9.876;2023-07-09T05:38:21;102529.75;;;30.99;100.00
7309;BME280;3695;53.330;9.876;2023-07-09T05:40:59;102532.31;;;32.52;94.78
7309;BME280;3695;53.330;9.876;2023-07-09T05:43:26;102554.97;;;31.49;96.98
7309;BME280;3695;53.330;9.876;2023-07-09T05:45:52;102553.34;;;29.78;100.00
7309;BME280;3695;53.330;9.876;2023-07-09T05:48:19;102552.81;;;29.43;100.00
7309;BME280;3695;53.330;9.876;2023-07-09T05:50:45;102546.13;;;30.10;100.00
7309;BME280;3695;53.330;9.876;2023-07-09T05:53:12;102551.34;;;29.97;100.00
7309;BME280;3695;53.330;9.876;2023-07-09T05:55:38;102548.25;;;30.45;100.00
7309;BME280;3695;53.330;9.876;2023-07-09T05:58:06;102552.94;;;30.77;100.00
7309;BME280;3695;53.330;9.876;2023-07-09T06:00:33;102559.63;;;30.35;100.00
7309;BME280;3695;53.330;9.876;2023-07-09T06:03:00;102562.22;;;30.45;100.00
7309;BME280;3695;53.330;9.876;2023-07-09T06:05:27;102564.94;;;30.50;100.00
7309;BME280;3695;53.330;9.876;2023-07-09T06:07:55;102552.19;;;31.71;100.00
7309;BME280;3695;53.330;9.876;2023-07-09T06:10:21;102561.19;;;30.41;100.00
7309;BME280;3695;53.330;9.876;2023-07-09T06:12:48;102570.31;;;30.00;100.00
7309;BME280;3695;53.330;9.876;2023-07-09T06:15:16;102557.50;;;30.59;100.00
7309;BME280;3695;53.330;9.876;2023-07-09T06:17:42;102558.31;;;30.74;100.00
7309;BME280;3695;53.330;9.876;2023-07-09T06:20:10;102560.00;;;30.75;100.00
7309;BME280;3695;53.330;9.876;2023-07-09T06:22:37;102561.81;;;30.52;100.00
7309;BME280;3695;53.330;9.876;2023-07-09T06:25:04;102572.91;;;30.98;100.00
7309;BME280;3695;53.330;9.876;2023-07-09T06:27:30;102568.19;;;31.57;100.00
7309;BME280;3695;53.330;9.876;2023-07-09T06:29:57;102552.41;;;32.06;100.00
7309;BME280;3695;53.330;9.876;2023-07-09T06:32:24;102566.81;;;31.68;100.00
7309;BME280;3695;53.330;9.876;2023-07-09T06:34:51;102558.94;;;32.23;100.00
7309;BME280;3695;53.330;9.876;2023-07-09T06:37:17;102567.69;;;31.19;100.00
7309;BME280;3695;53.330;9.876;2023-07-09T06:39:44;102552.66;;;32.58;99.95
7309;BME280;3695;53.330;9.876;2023-07-09T06:42:10;102570.56;;;31.63;100.00
7309;BME280;3695;53.330;9.876;2023-07-09T06:44:37;102576.22;;;32.39;99.72
7309;BME280;3695;53.330;9.876;2023-07-09T06:47:04;102567.66;;;32.84;98.65
7309;BME280;3695;53.330;9.876;2023-07-09T06:49:31;102568.03;;;33.77;96.70
7309;BME280;3695;53.330;9.876;2023-07-09T06:51:58;102585.91;;;32.64;96.86
7309;BME280;3695;53.330;9.876;2023-07-09T06:54:25;102575.34;;;32.30;98.98
7309;BME280;3695;53.330;9.876;2023-07-09T06:56:51;102582.75;;;32.26;100.00
7309;BME280;3695;53.330;9.876;2023-07-09T06:59:18;102572.75;;;32.42;98.57
7309;BME280;3695;53.330;9.876;2023-07-09T07:01:44;102560.38;;;32.92;99.79
7309;BME280;3695;53.330;9.876;2023-07-09T07:04:11;102578.22;;;31.49;100.00
7309;BME280;3695;53.330;9.876;2023-07-09T07:06:38;102580.81;;;31.68;100.00
7309;BME280;3695;53.330;9.876;2023-07-09T07:09:05;102579.06;;;32.56;100.00
7309;BME280;3695;53.330;9.876;2023-07-09T07:11:31;102562.03;;;32.93;98.99
7309;BME280;3695;53.330;9.876;2023-07-09T07:13:58;102578.50;;;32.77;98.09
7309;BME280;3695;53.330;9.876;2023-07-09T07:16:25;102576.81;;;31.74;100.00
7309;BME280;3695;53.330;9.876;2023-07-09T07:18:51;102578.09;;;31.05;100.00
7309;BME280;3695;53.330;9.876;2023-07-09T07:21:17;102582.09;;;31.62;100.00
7309;BME280;3695;53.330;9.876;2023-07-09T07:23:45;102571.66;;;31.54;100.00
7309;BME280;3695;53.330;9.876;2023-07-09T07:26:12;102562.72;;;32.50;100.00
7309;BME280;3695;53.330;9.876;2023-07-09T07:28:38;102570.91;;;32.38;100.00
7309;BME280;3695;53.330;9.876;2023-07-09T07:31:06;102560.22;;;32.97;100.00
7309;BME280;3695;53.330;9.876;2023-07-09T07:33:33;102562.03;;;32.84;100.00
7309;BME280;3695;53.330;9.876;2023-07-09T07:36:00;102563.69;;;32.85;100.00
7309;BME280;3695;53.330;9.876;2023-07-09T07:38:26;102559.91;;;33.07;100.00
7309;BME280;3695;53.330;9.876;2023-07-09T07:40:54;102559.72;;;32.86;100.00
7309;BME280;3695;53.330;9.876;2023-07-09T07:43:21;102549.25;;;34.63;99.71
7309;BME280;3695;53.330;9.876;2023-07-09T07:45:48;102535.03;;;36.42;95.56
7309;BME280;3695;53.330;9.876;2023-07-09T07:48:14;102561.63;;;33.60;98.31
7309;BME280;3695;53.330;9.876;2023-07-09T07:50:41;102569.72;;;33.61;95.87
7309;BME280;3695;53.330;9.876;2023-07-09T07:53:07;102561.41;;;34.08;97.33
7309;BME280;3695;53.330;9.876;2023-07-09T07:55:34;102565.09;;;33.48;98.55
7309;BME280;3695;53.330;9.876;2023-07-09T07:58:03;102563.59;;;33.51;98.77
7309;BME280;3695;53.330;9.876;2023-07-09T08:00:29;102572.19;;;33.80;98.67
7309;BME280;3695;53.330;9.876;2023-07-09T08:02:56;102571.22;;;34.31;98.17
7309;BME280;3695;53.330;9.876;2023-07-09T08:05:23;102564.69;;;34.10;97.90
7309;BME280;3695;53.330;9.876;2023-07-09T08:07:50;102556.84;;;35.00;97.80
7309;BME280;3695;53.330;9.876;2023-07-09T08:10:16;102561.28;;;35.52;97.46
7309;BME280;3695;53.330;9.876;2023-07-09T08:12:43;102559.34;;;35.77;96.67
7309;BME280;3695;53.330;9.876;2023-07-09T08:15:11;102568.38;;;34.49;98.14
7309;BME280;3695;53.330;9.876;2023-07-09T08:17:38;102557.72;;;34.92;97.95
7309;BME280;3695;53.330;9.876;2023-07-09T08:20:05;102551.34;;;36.00;96.15
7309;BME280;3695;53.330;9.876;2023-07-09T08:22:32;102543.94;;;37.17;92.69
7309;BME280;3695;53.330;9.876;2023-07-09T08:24:58;102570.75;;;36.01;92.67
7309;BME280;3695;53.330;9.876;2023-07-09T08:27:25;102569.09;;;36.82;88.97
7309;BME280;3695;53.330;9.876;2023-07-09T08:29:51;102572.91;;;34.70;94.74
7309;BME280;3695;53.330;9.876;2023-07-09T08:32:19;102572.84;;;34.50;94.63
7309;BME280;3695;53.330;9.876;2023-07-09T08:34:45;102576.56;;;34.33;98.30
7309;BME280;3695;53.330;9.876;2023-07-09T08:37:12;102581.84;;;34.34;99.63
7309;BME280;3695;53.330;9.876;2023-07-09T08:39:38;102581.28;;;33.86;97.61
7309;BME280;3695;53.330;9.876;2023-07-09T08:42:09;102569.19;;;34.87;97.09
7309;BME280;3695;53.330;9.876;2023-07-09T08:44:57;102566.22;;;34.84;97.40
7309;BME280;3695;53.330;9.876;2023-07-09T08:47:33;102554.84;;;35.22;98.17
7309;BME280;3695;53.330;9.876;2023-07-09T08:50:08;102555.41;;;35.57;95.91
7309;BME280;3695;53.330;9.876;2023-07-09T08:52:37;102545.22;;;35.44;93.73
7309;BME280;3695;53.330;9.876;2023-07-09T08:55:07;102546.31;;;36.17;94.01
7309;BME280;3695;53.330;9.876;2023-07-09T08:57:37;102547.16;;;35.52;92.59
7309;BME280;3695;53.330;9.876;2023-07-09T09:00:13;102540.25;;;35.61;93.15
7309;BME280;3695;53.330;9.876;2023-07-09T09:02:46;102545.44;;;35.18;93.66
7309;BME280;3695;53.330;9.876;2023-07-09T09:05:18;102543.84;;;35.29;93.58
7309;BME280;3695;53.330;9.876;2023-07-09T09:07:48;102541.22;;;35.65;93.93
7309;BME280;3695;53.330;9.876;2023-07-09T09:10:19;102536.38;;;35.87;92.81
7309;BME280;3695;53.330;9.876;2023-07-09T09:12:59;102543.88;;;35.50;92.90
7309;BME280;3695;53.330;9.876;2023-07-09T09:15:30;102535.19;;;35.55;91.45
7309;BME280;3695;53.330;9.876;2023-07-09T09:18:17;102540.63;;;35.60;93.68
7309;BME280;3695;53.330;9.876;2023-07-09T09:20:48;102542.78;;;35.75;92.82
7309;BME280;3695;53.330;9.876;2023-07-09T09:23:18;102536.41;;;35.45;94.59
7309;BME280;3695;53.330;9.876;2023-07-09T09:25:48;102535.72;;;36.14;92.25
7309;BME280;3695;53.330;9.876;2023-07-09T09:28:17;102530.22;;;36.67;91.14
7309;BME280;3695;53.330;9.876;2023-07-09T09:30:44;102536.34;;;36.56;91.52
7309;BME280;3695;53.330;9.876;2023-07-09T09:33:11;102532.44;;;36.73;88.49
7309;BME280;3695;53.330;9.876;2023-07-09T09:35:39;102523.47;;;37.08;89.12
7309;BME280;3695;53.330;9.876;2023-07-09T09:38:11;102523.38;;;37.32;91.13
7309;BME280;3695;53.330;9.876;2023-07-09T09:40:38;102547.75;;;36.84;91.86
7309;BME280;3695;53.330;9.876;2023-07-09T09:43:11;102523.72;;;37.71;91.41
7309;BME280;3695;53.330;9.876;2023-07-09T09:45:39;102519.69;;;37.72;89.73
7309;BME280;3695;53.330;9.876;2023-07-09T09:48:15;102538.78;;;37.07;91.47
7309;BME280;3695;53.330;9.876;2023-07-09T09:50:42;102531.78;;;37.16;91.54
7309;BME280;3695;53.330;9.876;2023-07-09T09:53:18;102543.78;;;36.61;94.33
7309;BME280;3695;53.330;9.876;2023-07-09T09:55:45;102527.84;;;37.45;90.05
7309;BME280;3695;53.330;9.876;2023-07-09T09:58:13;102524.47;;;37.56;90.26
7309;BME280;3695;53.330;9.876;2023-07-09T10:00:40;102534.31;;;37.46;93.88
7309;BME280;3695;53.330;9.876;2023-07-09T10:03:14;102523.81;;;37.74;89.84
7309;BME280;3695;53.330;9.876;2023-07-09T10:05:43;102503.19;;;40.07;84.80
7309;BME280;3695;53.330;9.876;2023-07-09T10:08:16;102507.56;;;41.07;82.82
7309;BME280;3695;53.330;9.876;2023-07-09T10:10:46;102516.97;;;39.63;81.51
7309;BME280;3695;53.330;9.876;2023-07-09T10:13:19;102520.22;;;38.88;84.70
7309;BME280;3695;53.330;9.876;2023-07-09T10:16:01;102518.03;;;39.55;82.08
7309;BME280;3695;53.330;9.876;2023-07-09T10:18:39;102523.00;;;39.03;81.93
7309;BME280;3695;53.330;9.876;2023-07-09T10:21:13;102515.31;;;39.81;83.71
7309;BME280;3695;53.330;9.876;2023-07-09T10:23:48;102518.53;;;41.05;83.20
7309;BME280;3695;53.330;9.876;2023-07-09T10:26:22;102526.28;;;39.83;83.38
7309;BME280;3695;53.330;9.876;2023-07-09T10:29:17;102525.09;;;38.87;81.80
7309;BME280;3695;53.330;9.876;2023-07-09T10:31:50;102525.19;;;39.10;80.88
7309;BME280;3695;53.330;9.876;2023-07-09T10:34:29;102540.97;;;38.41;83.95
7309;BME280;3695;53.330;9.876;2023-07-09T10:39:47;102535.94;;;38.19;81.17
7309;BME280;3695;53.330;9.876;2023-07-09T10:42:19;102531.88;;;38.67;81.47
7309;BME280;3695;53.330;9.876;2023-07-09T10:44:54;102535.00;;;38.46;82.86
7309;BME280;3695;53.330;9.876;2023-07-09T10:47:28;102536.59;;;37.84;84.85
7309;BME280;3695;53.330;9.876;2023-07-09T10:49:58;102507.66;;;41.14;79.92
7309;BME280;3695;53.330;9.876;2023-07-09T10:52:29;102520.81;;;38.15;80.34
7309;BME280;3695;53.330;9.876;2023-07-09T10:55:00;102509.97;;;40.22;78.65
7309;BME280;3695;53.330;9.876;2023-07-09T10:57:31;102521.63;;;39.52;80.41
7309;BME280;3695;53.330;9.876;2023-07-09T11:00:00;102531.53;;;38.05;82.10
7309;BME280;3695;53.330;9.876;2023-07-09T11:02:30;102537.53;;;37.32;85.74
7309;BME280;3695;53.330;9.876;2023-07-09T11:05:01;102522.34;;;37.80;81.83
7309;BME280;3695;53.330;9.876;2023-07-09T11:07:32;102527.88;;;37.21;81.36
7309;BME280;3695;53.330;9.876;2023-07-09T11:10:01;102530.19;;;37.43;81.65
7309;BME280;3695;53.330;9.876;2023-07-09T11:12:32;102524.66;;;37.91;80.77
7309;BME280;3695;53.330;9.876;2023-07-09T11:15:01;102512.06;;;37.88;77.85
7309;BME280;3695;53.330;9.876;2023-07-09T11:17:29;102527.50;;;37.35;79.93
7309;BME280;3695;53.330;9.876;2023-07-09T11:20:05;102518.06;;;37.03;77.17
7309;BME280;3695;53.330;9.876;2023-07-09T11:22:38;102504.56;;;37.80;76.71
7309;BME280;3695;53.330;9.876;2023-07-09T11:25:08;102503.13;;;37.86;77.59
7309;BME280;3695;53.330;9.876;2023-07-09T11:27:45;102493.53;;;38.06;75.71
7309;BME280;3695;53.330;9.876;2023-07-09T11:30:20;102482.22;;;38.22;71.84
7309;BME280;3695;53.330;9.876;2023-07-09T11:32:52;102482.06;;;38.66;72.12
7309;BME280;3695;53.330;9.876;2023-07-09T11:35:22;102483.91;;;37.79;72.61
7309;BME280;3695;53.330;9.876;2023-07-09T11:37:49;102489.41;;;37.88;77.82
7309;BME280;3695;53.330;9.876;2023-07-09T11:40:18;102473.94;;;38.49;69.73
7309;BME280;3695;53.330;9.876;2023-07-09T11:42:51;102450.84;;;39.01;68.64
7309;BME280;3695;53.330;9.876;2023-07-09T11:45:21;102468.94;;;38.26;68.66
7309;BME280;3695;53.330;9.876;2023-07-09T11:47:55;102460.75;;;38.56;67.91
7309;BME280;3695;53.330;9.876;2023-07-09T11:50:28;102467.41;;;38.80;69.75
7309;BME280;3695;53.330;9.876;2023-07-09T11:52:57;102471.16;;;38.01;68.32
7309;BME280;3695;53.330;9.876;2023-07-09T11:55:27;102423.81;;;42.26;68.38
7309;BME280;3695;53.330;9.876;2023-07-09T11:57:55;102464.19;;;38.46;66.79
7309;BME280;3695;53.330;9.876;2023-07-09T12:00:21;102459.25;;;38.11;65.79
7309;BME280;3695;53.330;9.876;2023-07-09T12:02:49;102465.38;;;38.29;66.33
7309;BME280;3695;53.330;9.876;2023-07-09T12:05:21;102456.06;;;38.13;63.49
7309;BME280;3695;53.330;9.876;2023-07-09T12:07:49;102451.63;;;38.63;63.40
7309;BME280;3695;53.330;9.876;2023-07-09T12:10:21;102446.44;;;38.84;61.20
7309;BME280;3695;53.330;9.876;2023-07-09T12:12:48;102446.22;;;38.93;60.97
7309;BME280;3695;53.330;9.876;2023-07-09T12:15:19;102427.13;;;39.28;59.85
7309;BME280;3695;53.330;9.876;2023-07-09T12:17:56;102431.22;;;38.92;62.09
7309;BME280;3695;53.330;9.876;2023-07-09T12:20:23;102430.69;;;38.32;61.29
7309;BME280;3695;53.330;9.876;2023-07-09T12:22:51;102417.50;;;39.56;60.64
7309;BME280;3695;53.330;9.876;2023-07-09T12:25:20;102423.38;;;39.24;59.54
7309;BME280;3695;53.330;9.876;2023-07-09T12:27:48;102432.38;;;38.72;62.66
7309;BME280;3695;53.330;9.876;2023-07-09T12:30:14;102421.59;;;38.97;62.76
7309;BME280;3695;53.330;9.876;2023-07-09T12:32:44;102418.22;;;39.30;64.00
7309;BME280;3695;53.330;9.876;2023-07-09T12:35:12;102404.69;;;39.43;60.85
7309;BME280;3695;53.330;9.876;2023-07-09T12:37:41;102416.97;;;39.08;63.12
7309;BME280;3695;53.330;9.876;2023-07-09T12:40:14;102425.75;;;39.03;61.29
7309;BME280;3695;53.330;9.876;2023-07-09T12:42:42;102425.56;;;38.57;60.48
7309;BME280;3695;53.330;9.876;2023-07-09T12:45:14;102447.69;;;39.45;58.84
7309;BME280;3695;53.330;9.876;2023-07-09T12:47:42;102428.97;;;40.09;60.09
7309;BME280;3695;53.330;9.876;2023-07-09T12:50:18;102417.09;;;40.56;59.39
7309;BME280;3695;53.330;9.876;2023-07-09T12:52:46;102416.31;;;40.29;59.18
7309;BME280;3695;53.330;9.876;2023-07-09T12:55:23;102427.53;;;39.95;60.62
7309;BME280;3695;53.330;9.876;2023-07-09T12:57:50;102411.00;;;40.27;59.46
7309;BME280;3695;53.330;9.876;2023-07-09T13:00:18;102415.75;;;40.46;58.05
7309;BME280;3695;53.330;9.876;2023-07-09T13:02:44;102412.34;;;40.11;59.76
7309;BME280;3695;53.330;9.876;2023-07-09T13:05:18;102411.72;;;40.21;59.07
7309;BME280;3695;53.330;9.876;2023-07-09T13:07:47;102412.06;;;40.42;57.62
7309;BME280;3695;53.330;9.876;2023-07-09T13:10:18;102413.88;;;40.05;59.03
7309;BME280;3695;53.330;9.876;2023-07-09T13:12:48;102410.84;;;40.43;57.77
7309;BME280;3695;53.330;9.876;2023-07-09T13:15:27;102393.09;;;40.80;58.60